Time;durP1;ratioP1;P1;durP2;ratioP2;P2;SDS_P1;SDS_P2;PMS_P1;PMS_P2;Temp;Humidity;BMP_temperature;BMP_pressure;BME280_temperature;BME280_humidity;BME280_pressure;Samples;Min_cycle;Max_cycle;Signal;HPM_P1;HPM_P2
2023/01/09 00:00:28;;;;;;;11.43;5.65;;;13.80;67.60;;;;;;6151963;29;20054;-74
2023/01/09 00:03:29;;;;;;;10.30;4.75;;;13.80;67.60;;;;;;6166274;28;20057;-74
2023/01/09 00:06:30;;;;;;;13.48;5.70;;;13.90;67.50;;;;;;6172119;28;20039;-73
2023/01/09 00:09:31;;;;;;;11.48;5.20;;;13.90;67.50;;;;;;6152214;28;20460;-74
2023/01/09 00:12:32;;;;;;;8.48;4.45;;;13.90;67.40;;;;;;6154240;28;20089;-74
2023/01/09 00:15:33;;;;;;;17.73;6.00;;;13.90;67.50;;;;;;6151267;28;20492;-73
2023/01/09 00:18:35;;;;;;;7.97;4.50;;;13.80;67.80;;;;;;6151927;28;20050;-73
2023/01/09 00:21:36;;;;;;;8.50;4.10;;;13.70;68.10;;;;;;6151411;28;20035;-73
2023/01/09 00:24:37;;;;;;;1.30;1.20;;;13.60;68.40;;;;;;6150199;28;20040;-74
2023/01/09 00:27:38;;;;;;;0.95;0.70;;;13.60;67.70;;;;;;6150584;28;20070;-74
2023/01/09 00:30:39;;;;;;;1.10;0.40;;;13.60;65.00;;;;;;6151465;28;20056;-73
2023/01/09 00:33:44;;;;;;;3.70;0.45;;;13.50;63.00;;;;;;6142563;28;20645;-74
2023/01/09 00:36:45;;;;;;;0.57;0.32;;;13.50;62.50;;;;;;6149955;28;20043;-74
2023/01/09 00:39:46;;;;;;;1.27;0.35;;;13.30;62.20;;;;;;6149135;28;20039;-73
2023/01/09 00:42:51;;;;;;;0.20;0.20;;;13.30;62.60;;;;;;6148348;28;20118;-74
2023/01/09 00:45:52;;;;;;;0.20;0.20;;;13.20;61.70;;;;;;6165725;28;20035;-73
2023/01/09 00:48:53;;;;;;;0.50;0.17;;;13.20;61.20;;;;;;6148896;28;20046;-75
2023/01/09 00:51:54;;;;;;;0.20;0.20;;;13.20;61.20;;;;;;6150928;28;20070;-73
2023/01/09 00:54:57;;;;;;;1.25;0.50;;;13.20;60.90;;;;;;6143499;29;20040;-73
2023/01/09 00:57:57;;;;;;;0.45;0.30;;;13.20;60.50;;;;;;6166499;28;20372;-74
2023/01/09 01:00:58;;;;;;;0.10;0.10;;;13.20;60.70;;;;;;6134840;29;20040;-74
2023/01/09 01:07:37;;;;;;;0.73;0.15;;;13.10;61.10;;;;;;6153978;28;20384;-74
2023/01/09 01:07:38;;;;;;;0.30;0.22;;;13.10;61.30;;;;;;6148205;28;20077;-74
2023/01/09 01:10:39;;;;;;;;;;;13.10;61.50;;;;;;6149844;28;20480;-73
2023/01/09 01:13:40;;;;;;;0.10;0.10;;;13.00;61.60;;;;;;6148277;28;19946;-73
2023/01/09 01:16:41;;;;;;;0.20;0.20;;;13.10;61.90;;;;;;6180012;28;20047;-73
2023/01/09 01:19:42;;;;;;;0.22;0.20;;;13.00;62.20;;;;;;6146231;28;20043;-73
2023/01/09 01:22:43;;;;;;;0.10;0.10;;;13.00;62.40;;;;;;6147003;28;20130;-74
2023/01/09 01:25:44;;;;;;;2.85;0.68;;;13.10;62.50;;;;;;6144001;28;20090;-74
2023/01/09 01:28:44;;;;;;;0.10;0.10;;;13.10;62.70;;;;;;6146131;28;20035;-73
2023/01/09 01:31:45;;;;;;;0.22;0.20;;;13.10;62.80;;;;;;6128665;28;20363;-73
2023/01/09 01:34:46;;;;;;;0.45;0.20;;;13.10;62.70;;;;;;6146487;28;20486;-74
2023/01/09 01:37:48;;;;;;;0.38;0.15;;;13.10;62.70;;;;;;6147252;28;20472;-73
2023/01/09 01:40:53;;;;;;;0.25;0.25;;;13.10;62.80;;;;;;6146244;28;20051;-74
2023/01/09 01:43:54;;;;;;;0.13;0.10;;;13.00;62.50;;;;;;6147131;28;20054;-73
2023/01/09 01:46:56;;;;;;;1.77;0.82;;;13.00;62.60;;;;;;6147396;28;20063;-75
2023/01/09 01:49:57;;;;;;;0.20;0.20;;;12.90;63.30;;;;;;6147449;28;20122;-76
2023/01/09 01:53:08;;;;;;;0.75;0.60;;;12.60;63.50;;;;;;6177824;28;20709;-76
2023/01/09 01:56:26;;;;;;;0.45;0.17;;;12.50;64.00;;;;;;6145443;28;20510;-75
2023/01/09 01:59:44;;;;;;;0.10;0.10;;;12.30;64.30;;;;;;6130232;28;20094;-75
2023/01/09 02:02:45;;;;;;;2.47;0.35;;;12.30;64.50;;;;;;6145180;28;20043;-76
2023/01/09 02:05:47;;;;;;;0.28;0.28;;;12.30;64.40;;;;;;6146068;28;20475;-75
2023/01/09 02:08:48;;;;;;;0.52;0.25;;;12.30;64.40;;;;;;6139336;28;20664;-74
2023/01/09 02:11:51;;;;;;;0.20;0.20;;;12.40;64.40;;;;;;6146745;28;20134;-76
2023/01/09 02:14:57;;;;;;;1.38;0.30;;;12.40;64.20;;;;;;6145274;28;20047;-75
2023/01/09 02:18:24;;;;;;;0.43;0.28;;;12.50;64.00;;;;;;6130634;28;20070;-75
2023/01/09 02:21:49;;;;;;;0.30;0.30;;;12.60;63.80;;;;;;6163218;28;20134;-76
2023/01/09 02:25:11;;;;;;;1.50;0.30;;;12.70;63.60;;;;;;6135944;28;20134;-75
2023/01/09 02:28:33;;;;;;;0.90;0.60;;;12.70;63.40;;;;;;6126859;28;20137;-74
2023/01/09 02:31:55;;;;;;;0.43;0.40;;;12.70;63.30;;;;;;6129639;28;20071;-74
2023/01/09 02:35:04;;;;;;;3.35;0.40;;;12.70;63.40;;;;;;6150671;28;20118;-76
2023/01/09 02:38:08;;;;;;;1.98;0.40;;;12.80;63.20;;;;;;6145787;29;20066;-75
2023/01/09 02:41:25;;;;;;;0.57;0.40;;;12.80;63.10;;;;;;6134254;28;20460;-75
2023/01/09 02:44:29;;;;;;;0.20;0.20;;;12.80;63.00;;;;;;6144699;29;20039;-75
2023/01/09 02:47:35;;;;;;;0.47;0.30;;;12.80;62.70;;;;;;6144075;28;20035;-75
2023/01/09 02:50:54;;;;;;;1.17;0.60;;;12.90;62.40;;;;;;6125806;29;20036;-76
2023/01/09 02:54:14;;;;;;;0.98;0.20;;;13.00;62.00;;;;;;6157511;28;20122;-74
2023/01/09 02:57:41;;;;;;;0.40;0.20;;;13.10;61.10;;;;;;6134965;29;20044;-75
2023/01/09 03:01:10;;;;;;;0.93;0.40;;;13.20;60.70;;;;;;6139928;28;21224;-74
2023/01/09 03:04:37;;;;;;;0.90;0.45;;;13.30;60.20;;;;;;6139988;28;20055;-76
2023/01/09 03:07:59;;;;;;;2.50;0.70;;;13.40;60.00;;;;;;6146250;29;20047;-75
2023/01/09 03:11:04;;;;;;;0.30;0.30;;;13.40;59.80;;;;;;6127624;29;20039;-75
2023/01/09 03:14:11;;;;;;;2.13;0.47;;;13.40;59.90;;;;;;6129244;29;20498;-75
2023/01/09 03:17:15;;;;;;;1.80;0.68;;;13.40;59.90;;;;;;6156326;28;20054;-74
2023/01/09 03:20:20;;;;;;;0.50;0.43;;;13.40;60.00;;;;;;6124905;29;20130;-75
2023/01/09 03:23:21;;;;;;;4.88;1.00;;;13.30;60.00;;;;;;6125380;29;20384;-74
2023/01/09 03:26:23;;;;;;;1.00;0.50;;;13.40;60.20;;;;;;6107689;29;20069;-75
2023/01/09 03:29:24;;;;;;;1.67;0.65;;;13.40;60.30;;;;;;6125052;29;20385;-75
2023/01/09 03:32:26;;;;;;;1.35;0.38;;;13.40;60.30;;;;;;6132126;28;20074;-75
2023/01/09 03:35:27;;;;;;;0.40;0.28;;;13.40;60.40;;;;;;6125557;28;20080;-75
2023/01/09 03:38:28;;;;;;;0.38;0.30;;;13.40;60.50;;;;;;6124987;29;20035;-76
2023/01/09 03:41:29;;;;;;;1.48;0.65;;;13.40;60.20;;;;;;6133608;28;20106;-75
2023/01/09 03:44:30;;;;;;;0.65;0.32;;;13.30;60.20;;;;;;6134355;28;20047;-75
2023/01/09 03:47:31;;;;;;;3.50;0.68;;;13.30;60.20;;;;;;6124868;28;20134;-75
2023/01/09 03:50:31;;;;;;;0.30;0.30;;;13.30;60.30;;;;;;6124299;29;20127;-74
2023/01/09 03:53:32;;;;;;;0.40;0.32;;;13.30;60.50;;;;;;6124109;29;20662;-73
2023/01/09 03:56:33;;;;;;;1.50;0.30;;;13.30;60.50;;;;;;6125205;29;20043;-75
2023/01/09 03:59:34;;;;;;;0.10;0.10;;;13.30;60.40;;;;;;6106994;29;20055;-75
2023/01/09 04:02:35;;;;;;;1.40;0.50;;;13.30;60.30;;;;;;6112395;28;20047;-74
2023/01/09 04:05:35;;;;;;;1.90;0.32;;;13.30;60.20;;;;;;6155149;28;20191;-75
2023/01/09 04:08:36;;;;;;;0.57;0.30;;;13.30;60.20;;;;;;6123484;28;20051;-75
2023/01/09 04:11:37;;;;;;;4.28;0.98;;;13.30;60.10;;;;;;6125203;29;20816;-75
2023/01/09 04:14:38;;;;;;;1.17;0.47;;;13.30;59.90;;;;;;6155102;28;20127;-75
2023/01/09 04:17:39;;;;;;;1.55;0.52;;;13.30;59.80;;;;;;6123407;29;20066;-75
2023/01/09 04:20:40;;;;;;;0.88;0.40;;;13.20;59.70;;;;;;6125125;29;20047;-74
2023/01/09 04:23:41;;;;;;;0.45;0.40;;;13.20;59.80;;;;;;6124527;29;20080;-74
2023/01/09 04:26:42;;;;;;;0.77;0.57;;;13.20;59.90;;;;;;6140136;29;20040;-74
2023/01/09 04:29:42;;;;;;;0.40;0.40;;;13.20;60.00;;;;;;6122441;29;20043;-74
2023/01/09 04:32:43;;;;;;;0.63;0.30;;;13.10;60.00;;;;;;6139624;28;20051;-75
2023/01/09 04:35:45;;;;;;;0.90;0.40;;;13.10;60.00;;;;;;6122812;29;20044;-74
2023/01/09 04:38:45;;;;;;;1.67;0.70;;;13.10;60.00;;;;;;6108233;29;20131;-74
2023/01/09 04:41:49;;;;;;;1.00;0.40;;;13.00;60.00;;;;;;6154397;28;20048;-74
2023/01/09 04:44:52;;;;;;;1.70;0.70;;;13.00;60.00;;;;;;6123532;29;20039;-74
2023/01/09 04:47:53;;;;;;;1.50;0.68;;;12.90;59.90;;;;;;6121918;29;20051;-74
2023/01/09 04:50:54;;;;;;;0.60;0.47;;;12.90;60.10;;;;;;6120915;29;20042;-74
2023/01/09 04:53:55;;;;;;;0.65;0.50;;;12.90;60.00;;;;;;6118855;29;20044;-75
2023/01/09 04:56:56;;;;;;;0.82;0.40;;;12.90;60.00;;;;;;6133943;29;20149;-75
2023/01/09 04:59:57;;;;;;;2.70;0.43;;;12.80;60.00;;;;;;6123765;29;20147;-75
2023/01/09 05:02:58;;;;;;;1.85;0.65;;;12.80;60.00;;;;;;6115759;28;20039;-74
2023/01/09 05:05:59;;;;;;;0.52;0.40;;;12.70;60.00;;;;;;6114740;29;20127;-74
2023/01/09 05:09:00;;;;;;;5.25;0.77;;;12.70;60.00;;;;;;6116583;29;20051;-73
2023/01/09 05:12:01;;;;;;;0.75;0.45;;;12.70;59.80;;;;;;6100595;29;20046;-75
2023/01/09 05:15:03;;;;;;;0.85;0.32;;;12.70;59.90;;;;;;6121648;28;20039;-74
2023/01/09 05:18:04;;;;;;;0.85;0.63;;;12.70;60.00;;;;;;6122452;29;20048;-74
2023/01/09 05:21:05;;;;;;;0.40;0.30;;;12.60;59.80;;;;;;6144614;28;20047;-74
2023/01/09 05:24:06;;;;;;;0.32;0.25;;;12.60;59.80;;;;;;6121723;29;20044;-74
2023/01/09 05:27:07;;;;;;;0.30;0.22;;;12.70;59.80;;;;;;6120996;29;20039;-73
2023/01/09 05:30:09;;;;;;;0.30;0.20;;;12.70;59.50;;;;;;6123397;29;20062;-74
2023/01/09 05:33:10;;;;;;;0.88;0.17;;;12.80;59.20;;;;;;6133586;28;20170;-74
2023/01/09 05:36:10;;;;;;;3.60;0.60;;;12.80;58.70;;;;;;6123639;29;20176;-74
2023/01/09 05:39:11;;;;;;;0.30;0.20;;;12.90;58.30;;;;;;6122103;29;20053;-74
2023/01/09 05:42:12;;;;;;;1.95;0.30;;;13.00;57.70;;;;;;6120729;29;20031;-74
2023/01/09 05:45:14;;;;;;;1.27;0.38;;;13.00;57.10;;;;;;6122314;29;20465;-74
2023/01/09 05:48:14;;;;;;;2.17;0.43;;;13.10;57.00;;;;;;6120594;29;20035;-74
2023/01/09 05:51:15;;;;;;;0.15;0.15;;;13.10;56.90;;;;;;6122132;29;20461;-74
2023/01/09 05:54:16;;;;;;;4.28;0.52;;;13.10;56.70;;;;;;6122560;28;20062;-74
2023/01/09 05:57:17;;;;;;;0.30;0.20;;;13.10;56.70;;;;;;6121664;29;20036;-75
2023/01/09 06:00:18;;;;;;;0.63;0.40;;;13.10;56.40;;;;;;6121121;29;20046;-73
2023/01/09 06:03:19;;;;;;;4.30;0.68;;;13.20;56.20;;;;;;6116302;28;20493;-76
2023/01/09 06:06:21;;;;;;;0.57;0.47;;;13.10;56.30;;;;;;6122012;29;20074;-74
2023/01/09 06:09:22;;;;;;;0.57;0.38;;;13.10;56.70;;;;;;6129226;28;20058;-75
2023/01/09 06:12:23;;;;;;;0.63;0.30;;;12.90;56.90;;;;;;6125614;28;20039;-75
2023/01/09 06:15:24;;;;;;;2.75;0.88;;;12.90;57.30;;;;;;6133037;28;20050;-75
2023/01/09 06:18:25;;;;;;;6.82;0.73;;;12.80;57.50;;;;;;6156367;28;20046;-75
2023/01/09 06:21:28;;;;;;;0.60;0.30;;;12.80;57.70;;;;;;6142378;28;20035;-75
2023/01/09 06:24:29;;;;;;;0.80;0.35;;;12.70;57.90;;;;;;6156399;28;20058;-75
2023/01/09 06:27:29;;;;;;;0.25;0.25;;;12.70;58.10;;;;;;6158858;28;20067;-74
2023/01/09 06:30:32;;;;;;;1.00;0.40;;;12.60;58.20;;;;;;6153199;28;20054;-75
2023/01/09 06:33:33;;;;;;;1.13;0.52;;;12.60;58.60;;;;;;6162554;28;20045;-75
2023/01/09 06:36:34;;;;;;;0.70;0.50;;;12.50;58.70;;;;;;6149611;28;20043;-77
2023/01/09 06:39:35;;;;;;;0.35;0.30;;;12.40;58.80;;;;;;6148779;28;20046;-75
2023/01/09 06:42:36;;;;;;;1.70;0.52;;;12.40;58.90;;;;;;6150110;28;20042;-75
2023/01/09 19:16:10;;;;;;;6.60;1.55;;;11.40;54.20;;;;;;6371240;23;20044;-74
2023/01/09 19:19:10;;;;;;;2.65;1.30;;;11.30;54.70;;;;;;6121273;29;20122;-74
2023/01/09 19:22:13;;;;;;;3.45;1.70;;;11.30;55.10;;;;;;6114607;29;20047;-74
2023/01/09 19:25:14;;;;;;;2.90;1.40;;;11.20;55.40;;;;;;6084332;29;20048;-73
2023/01/09 19:28:15;;;;;;;3.40;1.63;;;11.20;55.60;;;;;;6083646;29;20130;-75
2023/01/09 19:31:17;;;;;;;2.20;1.50;;;11.10;55.80;;;;;;6094121;29;20115;-73
2023/01/09 19:34:18;;;;;;;1.98;1.33;;;11.10;56.00;;;;;;6100962;29;20484;-74
2023/01/09 19:37:19;;;;;;;1.48;0.80;;;11.10;56.20;;;;;;6073931;29;20048;-75
2023/01/09 19:40:20;;;;;;;5.53;1.35;;;11.00;56.30;;;;;;6104636;29;20071;-74
2023/01/09 19:43:27;;;;;;;15.05;13.50;;;11.00;56.40;;;;;;6087481;29;20099;-76
2023/01/09 19:46:29;;;;;;;4.07;2.65;;;11.10;56.50;;;;;;6095846;29;20139;-75
2023/01/09 19:49:31;;;;;;;0.63;0.60;;;11.10;56.40;;;;;;6128902;29;20043;-75
2023/01/09 19:52:32;;;;;;;3.10;0.80;;;11.10;56.40;;;;;;6061570;29;20040;-76
2023/01/09 19:55:32;;;;;;;3.00;1.10;;;11.10;56.10;;;;;;6110698;29;20047;-74
2023/01/09 19:58:33;;;;;;;3.28;1.30;;;11.20;55.80;;;;;;6098324;29;20044;-75
2023/01/09 20:01:37;;;;;;;4.90;1.35;;;11.30;55.40;;;;;;6090125;29;20354;-76
2023/01/09 20:04:38;;;;;;;7.40;1.52;;;11.40;55.30;;;;;;6090455;29;20056;-76
2023/01/09 20:07:40;;;;;;;5.68;1.83;;;11.40;55.20;;;;;;6088106;29;20358;-75
2023/01/09 20:10:41;;;;;;;4.93;1.63;;;11.40;55.30;;;;;;6098733;29;20049;-73
2023/01/09 20:13:43;;;;;;;2.88;1.38;;;11.30;55.50;;;;;;6112743;29;20119;-74
2023/01/09 20:16:47;;;;;;;2.45;1.42;;;11.30;55.70;;;;;;6067205;29;20492;-74
2023/01/09 20:19:47;;;;;;;3.72;0.95;;;11.20;55.80;;;;;;6063506;29;20643;-74
2023/01/09 20:22:48;;;;;;;4.95;1.10;;;11.10;55.90;;;;;;6077974;29;20048;-74
2023/01/09 20:25:50;;;;;;;6.03;1.42;;;11.10;56.00;;;;;;6095456;29;20071;-75
2023/01/09 20:28:52;;;;;;;9.93;1.08;;;11.00;56.20;;;;;;6085336;29;20046;-75
2023/01/09 20:31:53;;;;;;;1.20;0.70;;;10.90;56.50;;;;;;6087328;29;20126;-75
2023/01/09 20:34:53;;;;;;;7.50;2.00;;;10.80;56.70;;;;;;6105986;29;20050;-75
2023/01/09 20:37:54;;;;;;;4.80;1.77;;;10.80;57.00;;;;;;6079904;29;20163;-74
2023/01/09 20:40:55;;;;;;;5.50;1.80;;;10.80;57.30;;;;;;6095454;29;20033;-73
2023/01/09 20:44:01;;;;;;;4.43;1.52;;;10.80;57.40;;;;;;6099793;29;20496;-75
2023/01/09 20:47:02;;;;;;;2.03;1.30;;;10.80;57.60;;;;;;6070116;29;20144;-77
2023/01/09 20:50:04;;;;;;;5.07;2.00;;;10.80;57.70;;;;;;6074389;29;20449;-74
2023/01/09 20:53:05;;;;;;;7.25;2.40;;;10.80;57.90;;;;;;6102400;29;20074;-73
2023/01/09 20:56:08;;;;;;;7.25;2.17;;;10.70;58.10;;;;;;6094286;29;20070;-75
2023/01/09 20:59:19;;;;;;;7.32;2.38;;;10.70;58.50;;;;;;6097064;29;20043;-77
2023/01/09 21:02:21;;;;;;;5.60;2.00;;;10.60;58.80;;;;;;6091553;29;20421;-77
2023/01/09 21:05:22;;;;;;;4.30;2.33;;;10.60;58.90;;;;;;6087435;29;20049;-79
2023/01/09 21:08:22;;;;;;;6.38;2.45;;;10.60;59.20;;;;;;6081347;29;20413;-76
2023/01/09 21:11:23;;;;;;;4.28;2.30;;;10.60;59.10;;;;;;6065883;29;20045;-76
2023/01/09 21:14:24;;;;;;;5.60;2.25;;;10.60;59.20;;;;;;6040583;29;20045;-77
2023/01/09 21:17:27;;;;;;;8.30;2.63;;;10.60;59.30;;;;;;6090276;29;20081;-77
2023/01/09 21:20:27;;;;;;;7.95;2.45;;;10.50;59.40;;;;;;6092077;29;20488;-77
2023/01/09 21:23:28;;;;;;;7.60;2.65;;;10.60;59.50;;;;;;6099858;29;20048;-78
2023/01/09 21:26:29;;;;;;;7.35;2.17;;;10.60;59.60;;;;;;6103371;29;20455;-76
2023/01/09 21:29:30;;;;;;;4.57;2.00;;;10.60;59.60;;;;;;6100248;29;20050;-78
2023/01/09 21:32:33;;;;;;;8.25;2.00;;;10.60;59.60;;;;;;6095611;29;20071;-78
2023/01/09 21:35:34;;;;;;;3.20;1.80;;;10.60;59.50;;;;;;6063784;29;20469;-77
2023/01/09 21:38:36;;;;;;;5.03;1.75;;;10.60;59.50;;;;;;6081997;29;20036;-77
2023/01/09 21:48:15;;;;;;;4.93;2.08;;;10.70;59.40;;;;;;6086552;29;20051;-75
2023/01/09 21:51:16;;;;;;;7.72;2.38;;;10.70;59.40;;;;;;6083416;29;20090;-75
2023/01/09 21:54:17;;;;;;;11.07;2.10;;;10.70;59.30;;;;;;6098776;29;20047;-76
2023/01/09 21:57:18;;;;;;;11.02;2.58;;;10.70;59.50;;;;;;6078132;29;20105;-76
2023/01/09 22:00:19;;;;;;;5.70;2.05;;;10.70;59.60;;;;;;6083742;29;20036;-75
2023/01/09 22:03:20;;;;;;;4.78;2.22;;;10.60;59.60;;;;;;6101263;29;20052;-75
2023/01/09 22:06:22;;;;;;;2.03;1.10;;;10.70;59.70;;;;;;6114220;29;20360;-75
2023/01/09 22:09:23;;;;;;;3.72;1.52;;;10.60;59.70;;;;;;6080466;29;20036;-75
2023/01/09 22:12:24;;;;;;;4.85;1.20;;;10.60;59.50;;;;;;6103574;29;20692;-75
2023/01/09 22:15:25;;;;;;;5.55;1.80;;;10.60;59.40;;;;;;6098345;29;20048;-75
2023/01/09 22:18:26;;;;;;;1.38;0.85;;;10.70;59.40;;;;;;6092326;29;20040;-75
2023/01/09 22:21:27;;;;;;;4.60;1.20;;;10.60;59.30;;;;;;6089730;29;20073;-75
2023/01/09 22:24:28;;;;;;;2.13;0.80;;;10.60;59.30;;;;;;6095868;29;20051;-75
2023/01/09 22:27:29;;;;;;;2.25;0.55;;;10.60;59.30;;;;;;6121529;29;20058;-74
2023/01/09 22:30:30;;;;;;;4.03;0.60;;;10.60;59.00;;;;;;6084451;29;20036;-74
2023/01/09 22:33:32;;;;;;;2.50;1.05;;;10.60;58.90;;;;;;6083137;29;20075;-75
2023/01/09 22:36:33;;;;;;;1.80;1.08;;;10.50;58.90;;;;;;6079178;29;20127;-75
2023/01/09 22:39:34;;;;;;;2.58;0.65;;;10.50;59.30;;;;;;6084507;29;20048;-75
2023/01/09 22:42:35;;;;;;;4.25;1.05;;;10.40;59.50;;;;;;6085116;29;20123;-75
2023/01/09 22:45:36;;;;;;;1.02;0.60;;;10.40;59.90;;;;;;6080345;29;20045;-74
2023/01/09 22:48:38;;;;;;;1.85;0.85;;;10.30;60.20;;;;;;6085307;29;20036;-75
2023/01/09 22:51:39;;;;;;;3.75;1.65;;;10.20;60.90;;;;;;6101936;29;20040;-75
2023/01/09 22:54:40;;;;;;;2.17;0.80;;;10.20;62.20;;;;;;6085330;29;20047;-75
2023/01/09 22:57:41;;;;;;;2.08;0.73;;;10.10;61.80;;;;;;6084966;29;20040;-74
2023/01/09 23:00:42;;;;;;;0.40;0.40;;;10.10;62.10;;;;;;6078654;29;20070;-75
2023/01/09 23:03:42;;;;;;;1.65;0.50;;;10.10;62.10;;;;;;6083210;29;20064;-76
2023/01/09 23:06:43;;;;;;;0.93;0.28;;;10.10;61.80;;;;;;6085863;29;20742;-77
2023/01/09 23:09:44;;;;;;;0.30;0.20;;;10.10;61.70;;;;;;6101858;29;20135;-76
2023/01/09 23:12:47;;;;;;;0.50;0.40;;;10.10;61.50;;;;;;6101955;29;20036;-76
2023/01/09 23:15:48;;;;;;;1.35;0.28;;;10.10;61.20;;;;;;6094530;29;20076;-76
2023/01/09 23:18:49;;;;;;;0.20;0.20;;;10.10;60.90;;;;;;6073812;29;20044;-75
2023/01/09 23:21:50;;;;;;;0.43;0.40;;;10.20;60.70;;;;;;6082989;29;20108;-75
2023/01/09 23:24:51;;;;;;;0.95;0.50;;;10.20;60.40;;;;;;6084968;29;20036;-76
2023/01/09 23:27:52;;;;;;;0.98;0.60;;;10.30;60.40;;;;;;6081781;29;20097;-75
2023/01/09 23:30:53;;;;;;;1.08;0.50;;;10.30;59.90;;;;;;6105905;29;20667;-76
2023/01/09 23:33:54;;;;;;;3.55;0.70;;;10.40;59.70;;;;;;6073939;29;20036;-75
2023/01/09 23:36:56;;;;;;;2.90;0.40;;;10.40;59.40;;;;;;6089050;29;20557;-75
2023/01/09 23:39:57;;;;;;;0.40;0.40;;;10.40;59.20;;;;;;6106238;29;20126;-75
2023/01/09 23:43:10;;;;;;;1.88;0.90;;;10.50;59.10;;;;;;6089878;29;20040;-75
2023/01/09 23:46:11;;;;;;;1.63;1.00;;;10.50;59.00;;;;;;6097528;29;20422;-75
2023/01/09 23:49:12;;;;;;;2.45;0.50;;;10.50;59.00;;;;;;6084949;29;20366;-75
2023/01/09 23:52:12;;;;;;;5.50;1.05;;;10.50;58.90;;;;;;6094474;29;20045;-75
2023/01/09 23:55:13;;;;;;;0.95;0.45;;;10.60;58.90;;;;;;6102378;29;20036;-75
2023/01/09 23:58:14;;;;;;;1.15;0.63;;;10.60;59.00;;;;;;6104897;29;20470;-75
